sensor_id;sensor_type;location;lat;lon;timestamp;P1;durP1;ratioP1;P2;durP2;ratioP2
69636;SDS011;56860;51.144;16.954;2024-01-10T00:00:37;45.6;;;84.7;;
69636;SDS011;56860;51.144;16.954;2024-01-10T00:01:37;45.6;;;84.7;;
69636;SDS011;56860;51.144;16.954;2024-01-10T00:02:37;45.8;;;89.3;;
69636;SDS011;56860;51.144;16.954;2024-01-10T00:03:37;44.5;;;85.6;;
69636;SDS011;56860;51.144;16.954;2024-01-10T00:04:37;44.5;;;85.6;;
69636;SDS011;56860;51.144;16.954;2024-01-10T00:05:37;45.6;;;94.0;;
69636;SDS011;56860;51.144;16.954;2024-01-10T00:06:37;44.8;;;90.6;;
69636;SDS011;56860;51.144;16.954;2024-01-10T00:07:37;44.8;;;90.6;;
69636;SDS011;56860;51.144;16.954;2024-01-10T00:08:37;49.2;;;94.2;;
69636;SDS011;56860;51.144;16.954;2024-01-10T00:09:37;48.3;;;91.4;;
69636;SDS011;56860;51.144;16.954;2024-01-10T00:10:37;48.3;;;91.4;;
69636;SDS011;56860;51.144;16.954;2024-01-10T00:11:37;49.9;;;93.7;;
69636;SDS011;56860;51.144;16.954;2024-01-10T00:12:38;49.0;;;90.6;;
69636;SDS011;56860;51.144;16.954;2024-01-10T00:13:37;49.0;;;90.6;;
69636;SDS011;56860;51.144;16.954;2024-01-10T00:14:37;46.2;;;90.6;;
69636;SDS011;56860;51.144;16.954;2024-01-10T00:15:37;45.5;;;92.1;;
69636;SDS011;56860;51.144;16.954;2024-01-10T00:16:37;45.5;;;92.1;;
69636;SDS011;56860;51.144;16.954;2024-01-10T00:17:37;36.2;;;68.7;;
69636;SDS011;56860;51.144;16.954;2024-01-10T00:18:37;46.3;;;93.4;;
69636;SDS011;56860;51.144;16.954;2024-01-10T00:19:37;46.3;;;93.4;;
69636;SDS011;56860;51.144;16.954;2024-01-10T00:20:37;30.9;;;57.9;;
69636;SDS011;56860;51.144;16.954;2024-01-10T00:21:37;44.3;;;84.5;;
69636;SDS011;56860;51.144;16.954;2024-01-10T00:22:37;44.3;;;84.5;;
69636;SDS011;56860;51.144;16.954;2024-01-10T00:23:37;44.3;;;84.5;;
69636;SDS011;56860;51.144;16.954;2024-01-10T00:24:37;44.3;;;100.2;;
69636;SDS011;56860;51.144;16.954;2024-01-10T00:25:37;44.3;;;100.2;;
69636;SDS011;56860;51.144;16.954;2024-01-10T00:26:37;44.3;;;100.2;;
69636;SDS011;56860;51.144;16.954;2024-01-10T00:27:37;42.5;;;85.2;;
69636;SDS011;56860;51.144;16.954;2024-01-10T00:28:37;42.5;;;85.2;;
69636;SDS011;56860;51.144;16.954;2024-01-10T00:29:37;42.5;;;85.2;;
69636;SDS011;56860;51.144;16.954;2024-01-10T00:30:37;45.0;;;92.6;;
69636;SDS011;56860;51.144;16.954;2024-01-10T00:31:37;45.0;;;92.6;;
69636;SDS011;56860;51.144;16.954;2024-01-10T00:32:37;45.0;;;92.6;;
69636;SDS011;56860;51.144;16.954;2024-01-10T00:33:38;45.5;;;95.2;;
69636;SDS011;56860;51.144;16.954;2024-01-10T00:34:37;45.5;;;95.2;;
69636;SDS011;56860;51.144;16.954;2024-01-10T00:35:37;45.5;;;95.2;;
69636;SDS011;56860;51.144;16.954;2024-01-10T00:36:37;45.6;;;88.7;;
69636;SDS011;56860;51.144;16.954;2024-01-10T00:37:37;45.6;;;88.7;;
69636;SDS011;56860;51.144;16.954;2024-01-10T00:38:37;45.6;;;88.7;;
69636;SDS011;56860;51.144;16.954;2024-01-10T00:39:37;45.6;;;89.1;;
69636;SDS011;56860;51.144;16.954;2024-01-10T00:40:37;45.6;;;89.1;;
69636;SDS011;56860;51.144;16.954;2024-01-10T00:41:37;45.6;;;89.1;;
69636;SDS011;56860;51.144;16.954;2024-01-10T00:42:37;46.4;;;95.7;;
69636;SDS011;56860;51.144;16.954;2024-01-10T00:43:37;46.4;;;95.7;;
69636;SDS011;56860;51.144;16.954;2024-01-10T00:44:37;46.4;;;95.7;;
69636;SDS011;56860;51.144;16.954;2024-01-10T00:45:37;44.1;;;89.0;;
69636;SDS011;56860;51.144;16.954;2024-01-10T00:46:37;44.1;;;89.0;;
69636;SDS011;56860;51.144;16.954;2024-01-10T00:47:37;44.1;;;89.0;;
69636;SDS011;56860;51.144;16.954;2024-01-10T00:48:37;44.4;;;91.5;;
69636;SDS011;56860;51.144;16.954;2024-01-10T00:49:37;44.4;;;91.5;;
69636;SDS011;56860;51.144;16.954;2024-01-10T00:50:37;44.4;;;91.5;;
69636;SDS011;56860;51.144;16.954;2024-01-10T00:51:37;43.7;;;90.1;;
69636;SDS011;56860;51.144;16.954;2024-01-10T00:52:37;43.7;;;90.1;;
69636;SDS011;56860;51.144;16.954;2024-01-10T00:53:37;43.7;;;90.1;;
69636;SDS011;56860;51.144;16.954;2024-01-10T00:54:37;46.1;;;91.1;;
69636;SDS011;56860;51.144;16.954;2024-01-10T00:55:37;46.1;;;91.1;;
69636;SDS011;56860;51.144;16.954;2024-01-10T00:56:37;46.1;;;91.1;;
69636;SDS011;56860;51.144;16.954;2024-01-10T00:57:37;46.0;;;91.7;;
69636;SDS011;56860;51.144;16.954;2024-01-10T00:58:37;46.0;;;91.7;;
69636;SDS011;56860;51.144;16.954;2024-01-10T00:59:37;46.0;;;91.7;;
69636;SDS011;56860;51.144;16.954;2024-01-10T01:00:37;45.3;;;93.5;;
69636;SDS011;56860;51.144;16.954;2024-01-10T01:01:37;45.3;;;93.5;;
69636;SDS011;56860;51.144;16.954;2024-01-10T01:02:37;45.3;;;93.5;;
69636;SDS011;56860;51.144;16.954;2024-01-10T01:03:37;46.7;;;94.7;;
69636;SDS011;56860;51.144;16.954;2024-01-10T01:04:37;46.7;;;94.7;;
69636;SDS011;56860;51.144;16.954;2024-01-10T01:05:37;46.7;;;94.7;;
69636;SDS011;56860;51.144;16.954;2024-01-10T01:06:37;48.5;;;98.7;;
69636;SDS011;56860;51.144;16.954;2024-01-10T01:07:37;48.5;;;98.7;;
69636;SDS011;56860;51.144;16.954;2024-01-10T01:08:37;48.5;;;98.7;;
69636;SDS011;56860;51.144;16.954;2024-01-10T01:09:37;47.9;;;99.4;;
69636;SDS011;56860;51.144;16.954;2024-01-10T01:10:37;47.9;;;99.4;;
69636;SDS011;56860;51.144;16.954;2024-01-10T01:11:37;47.9;;;99.4;;
69636;SDS011;56860;51.144;16.954;2024-01-10T01:12:37;46.9;;;103.2;;
69636;SDS011;56860;51.144;16.954;2024-01-10T01:13:37;46.9;;;103.2;;
69636;SDS011;56860;51.144;16.954;2024-01-10T01:14:37;46.9;;;103.2;;
69636;SDS011;56860;51.144;16.954;2024-01-10T01:15:37;49.4;;;104.3;;
69636;SDS011;56860;51.144;16.954;2024-01-10T01:16:37;49.4;;;104.3;;
69636;SDS011;56860;51.144;16.954;2024-01-10T01:17:37;49.4;;;104.3;;
69636;SDS011;56860;51.144;16.954;2024-01-10T01:18:37;44.5;;;87.6;;
69636;SDS011;56860;51.144;16.954;2024-01-10T01:19:37;44.5;;;87.6;;
69636;SDS011;56860;51.144;16.954;2024-01-10T01:20:37;44.5;;;87.6;;
69636;SDS011;56860;51.144;16.954;2024-01-10T01:21:37;47.4;;;96.3;;
69636;SDS011;56860;51.144;16.954;2024-01-10T01:22:37;47.4;;;96.3;;
69636;SDS011;56860;51.144;16.954;2024-01-10T01:23:37;47.4;;;96.3;;
69636;SDS011;56860;51.144;16.954;2024-01-10T01:24:37;47.4;;;109.5;;
69636;SDS011;56860;51.144;16.954;2024-01-10T01:25:37;47.4;;;109.5;;
69636;SDS011;56860;51.144;16.954;2024-01-10T01:26:37;47.4;;;109.5;;
69636;SDS011;56860;51.144;16.954;2024-01-10T01:27:37;49.3;;;97.4;;
69636;SDS011;56860;51.144;16.954;2024-01-10T01:28:37;49.3;;;97.4;;
69636;SDS011;56860;51.144;16.954;2024-01-10T01:29:37;49.3;;;97.4;;
69636;SDS011;56860;51.144;16.954;2024-01-10T01:30:37;47.9;;;100.3;;
69636;SDS011;56860;51.144;16.954;2024-01-10T01:31:37;47.9;;;100.3;;
69636;SDS011;56860;51.144;16.954;2024-01-10T01:32:37;47.9;;;100.3;;
69636;SDS011;56860;51.144;16.954;2024-01-10T01:33:37;48.2;;;97.5;;
69636;SDS011;56860;51.144;16.954;2024-01-10T01:34:37;48.2;;;97.5;;
69636;SDS011;56860;51.144;16.954;2024-01-10T01:35:37;48.2;;;97.5;;
69636;SDS011;56860;51.144;16.954;2024-01-10T01:36:37;51.5;;;101.8;;
69636;SDS011;56860;51.144;16.954;2024-01-10T01:37:37;51.5;;;101.8;;
69636;SDS011;56860;51.144;16.954;2024-01-10T01:38:38;51.5;;;101.8;;
69636;SDS011;56860;51.144;16.954;2024-01-10T01:39:37;48.1;;;102.0;;
69636;SDS011;56860;51.144;16.954;2024-01-10T01:40:37;48.1;;;102.0;;
69636;SDS011;56860;51.144;16.954;2024-01-10T01:41:37;48.1;;;102.0;;
69636;SDS011;56860;51.144;16.954;2024-01-10T01:42:37;50.7;;;110.0;;
69636;SDS011;56860;51.144;16.954;2024-01-10T01:43:37;50.7;;;110.0;;
69636;SDS011;56860;51.144;16.954;2024-01-10T01:44:37;50.7;;;110.0;;
69636;SDS011;56860;51.144;16.954;2024-01-10T01:47:38;51.5;;;106.3;;
69636;SDS011;56860;51.144;16.954;2024-01-10T01:48:37;51.5;;;106.3;;
69636;SDS011;56860;51.144;16.954;2024-01-10T01:49:37;47.5;;;98.8;;
69636;SDS011;56860;51.144;16.954;2024-01-10T01:50:37;47.5;;;98.8;;
69636;SDS011;56860;51.144;16.954;2024-01-10T01:51:37;47.5;;;98.8;;
69636;SDS011;56860;51.144;16.954;2024-01-10T01:52:37;51.7;;;107.8;;
69636;SDS011;56860;51.144;16.954;2024-01-10T01:53:38;51.7;;;107.8;;
69636;SDS011;56860;51.144;16.954;2024-01-10T01:54:37;51.7;;;107.8;;
69636;SDS011;56860;51.144;16.954;2024-01-10T01:55:37;47.9;;;104.2;;
69636;SDS011;56860;51.144;16.954;2024-01-10T01:56:38;47.9;;;104.2;;
69636;SDS011;56860;51.144;16.954;2024-01-10T01:57:37;47.9;;;104.2;;
69636;SDS011;56860;51.144;16.954;2024-01-10T01:58:37;49.4;;;104.5;;
69636;SDS011;56860;51.144;16.954;2024-01-10T01:59:37;49.4;;;104.5;;
69636;SDS011;56860;51.144;16.954;2024-01-10T02:00:38;49.4;;;104.5;;
69636;SDS011;56860;51.144;16.954;2024-01-10T02:01:38;49.6;;;102.8;;
69636;SDS011;56860;51.144;16.954;2024-01-10T02:02:38;49.6;;;102.8;;
69636;SDS011;56860;51.144;16.954;2024-01-10T02:03:38;49.6;;;102.8;;
69636;SDS011;56860;51.144;16.954;2024-01-10T02:04:38;49.0;;;111.8;;
69636;SDS011;56860;51.144;16.954;2024-01-10T02:05:38;49.0;;;111.8;;
69636;SDS011;56860;51.144;16.954;2024-01-10T02:06:38;49.0;;;111.8;;
69636;SDS011;56860;51.144;16.954;2024-01-10T02:07:38;50.5;;;117.4;;
69636;SDS011;56860;51.144;16.954;2024-01-10T02:08:38;50.5;;;117.4;;
69636;SDS011;56860;51.144;16.954;2024-01-10T02:09:38;50.5;;;117.4;;
69636;SDS011;56860;51.144;16.954;2024-01-10T02:10:38;48.1;;;111.2;;
69636;SDS011;56860;51.144;16.954;2024-01-10T02:11:38;48.1;;;111.2;;
69636;SDS011;56860;51.144;16.954;2024-01-10T02:12:38;48.1;;;111.2;;
69636;SDS011;56860;51.144;16.954;2024-01-10T02:13:38;50.5;;;108.8;;
69636;SDS011;56860;51.144;16.954;2024-01-10T02:14:38;50.5;;;108.8;;
69636;SDS011;56860;51.144;16.954;2024-01-10T02:15:38;50.5;;;108.8;;
69636;SDS011;56860;51.144;16.954;2024-01-10T02:16:38;49.0;;;104.7;;
69636;SDS011;56860;51.144;16.954;2024-01-10T02:17:38;49.0;;;104.7;;
69636;SDS011;56860;51.144;16.954;2024-01-10T02:18:38;49.0;;;104.7;;
69636;SDS011;56860;51.144;16.954;2024-01-10T02:19:38;51.5;;;111.0;;
69636;SDS011;56860;51.144;16.954;2024-01-10T02:20:38;51.5;;;111.0;;
69636;SDS011;56860;51.144;16.954;2024-01-10T02:21:38;51.5;;;111.0;;
69636;SDS011;56860;51.144;16.954;2024-01-10T02:22:38;52.9;;;114.5;;
69636;SDS011;56860;51.144;16.954;2024-01-10T02:23:38;52.9;;;114.5;;
69636;SDS011;56860;51.144;16.954;2024-01-10T02:24:38;52.9;;;114.5;;
69636;SDS011;56860;51.144;16.954;2024-01-10T02:25:38;51.7;;;105.0;;
69636;SDS011;56860;51.144;16.954;2024-01-10T02:26:38;51.7;;;105.0;;
69636;SDS011;56860;51.144;16.954;2024-01-10T02:27:39;51.7;;;105.0;;
69636;SDS011;56860;51.144;16.954;2024-01-10T02:28:38;52.6;;;111.9;;
69636;SDS011;56860;51.144;16.954;2024-01-10T02:29:38;52.6;;;111.9;;
69636;SDS011;56860;51.144;16.954;2024-01-10T02:30:38;52.6;;;111.9;;
69636;SDS011;56860;51.144;16.954;2024-01-10T02:31:38;51.4;;;112.8;;
69636;SDS011;56860;51.144;16.954;2024-01-10T02:32:38;51.4;;;112.8;;
69636;SDS011;56860;51.144;16.954;2024-01-10T02:35:38;57.9;;;129.2;;
69636;SDS011;56860;51.144;16.954;2024-01-10T02:36:38;57.9;;;129.2;;
69636;SDS011;56860;51.144;16.954;2024-01-10T02:37:38;51.9;;;110.4;;
69636;SDS011;56860;51.144;16.954;2024-01-10T02:38:38;51.9;;;110.4;;
69636;SDS011;56860;51.144;16.954;2024-01-10T02:39:38;51.9;;;110.4;;
69636;SDS011;56860;51.144;16.954;2024-01-10T02:40:38;54.2;;;116.2;;
69636;SDS011;56860;51.144;16.954;2024-01-10T02:41:38;54.2;;;116.2;;
69636;SDS011;56860;51.144;16.954;2024-01-10T02:42:39;54.2;;;116.2;;
69636;SDS011;56860;51.144;16.954;2024-01-10T02:43:38;54.6;;;123.2;;
69636;SDS011;56860;51.144;16.954;2024-01-10T02:44:38;54.6;;;123.2;;
69636;SDS011;56860;51.144;16.954;2024-01-10T02:45:38;54.6;;;123.2;;
69636;SDS011;56860;51.144;16.954;2024-01-10T02:46:38;53.3;;;112.6;;
69636;SDS011;56860;51.144;16.954;2024-01-10T02:47:38;53.3;;;112.6;;
69636;SDS011;56860;51.144;16.954;2024-01-10T02:48:38;53.3;;;112.6;;
69636;SDS011;56860;51.144;16.954;2024-01-10T02:49:38;56.4;;;124.5;;
69636;SDS011;56860;51.144;16.954;2024-01-10T02:50:38;54.3;;;122.1;;
69636;SDS011;56860;51.144;16.954;2024-01-10T02:51:38;54.3;;;122.1;;
69636;SDS011;56860;51.144;16.954;2024-01-10T02:52:38;55.0;;;127.0;;
69636;SDS011;56860;51.144;16.954;2024-01-10T02:53:38;52.4;;;122.5;;
69636;SDS011;56860;51.144;16.954;2024-01-10T02:54:38;52.4;;;122.5;;
69636;SDS011;56860;51.144;16.954;2024-01-10T02:55:38;55.9;;;122.0;;
69636;SDS011;56860;51.144;16.954;2024-01-10T02:56:38;53.7;;;114.8;;
69636;SDS011;56860;51.144;16.954;2024-01-10T02:57:38;53.7;;;114.8;;
69636;SDS011;56860;51.144;16.954;2024-01-10T02:58:38;59.1;;;123.0;;
69636;SDS011;56860;51.144;16.954;2024-01-10T02:59:38;57.5;;;119.0;;
69636;SDS011;56860;51.144;16.954;2024-01-10T03:00:38;57.5;;;119.0;;
69636;SDS011;56860;51.144;16.954;2024-01-10T03:01:38;56.3;;;122.5;;
69636;SDS011;56860;51.144;16.954;2024-01-10T03:02:38;54.5;;;119.9;;
69636;SDS011;56860;51.144;16.954;2024-01-10T03:03:38;54.5;;;119.9;;
69636;SDS011;56860;51.144;16.954;2024-01-10T03:04:38;56.7;;;133.7;;
69636;SDS011;56860;51.144;16.954;2024-01-10T03:05:38;55.2;;;127.0;;
69636;SDS011;56860;51.144;16.954;2024-01-10T03:06:38;55.2;;;127.0;;
69636;SDS011;56860;51.144;16.954;2024-01-10T03:07:38;54.5;;;124.4;;
69636;SDS011;56860;51.144;16.954;2024-01-10T03:08:38;52.4;;;117.5;;
69636;SDS011;56860;51.144;16.954;2024-01-10T03:09:38;52.4;;;117.5;;
69636;SDS011;56860;51.144;16.954;2024-01-10T03:10:38;42.1;;;93.3;;
69636;SDS011;56860;51.144;16.954;2024-01-10T03:11:38;56.9;;;133.2;;
69636;SDS011;56860;51.144;16.954;2024-01-10T03:12:38;56.9;;;133.2;;
69636;SDS011;56860;51.144;16.954;2024-01-10T03:13:38;56.9;;;133.2;;
69636;SDS011;56860;51.144;16.954;2024-01-10T03:14:38;53.5;;;121.6;;
69636;SDS011;56860;51.144;16.954;2024-01-10T03:15:38;53.5;;;121.6;;
69636;SDS011;56860;51.144;16.954;2024-01-10T03:16:38;53.5;;;121.6;;
69636;SDS011;56860;51.144;16.954;2024-01-10T03:17:38;56.5;;;135.1;;
69636;SDS011;56860;51.144;16.954;2024-01-10T03:18:38;56.5;;;135.1;;
69636;SDS011;56860;51.144;16.954;2024-01-10T03:19:38;56.5;;;135.1;;
69636;SDS011;56860;51.144;16.954;2024-01-10T03:20:38;53.3;;;117.0;;
69636;SDS011;56860;51.144;16.954;2024-01-10T03:21:38;53.3;;;117.0;;
69636;SDS011;56860;51.144;16.954;2024-01-10T03:22:38;53.3;;;117.0;;
69636;SDS011;56860;51.144;16.954;2024-01-10T03:23:38;53.3;;;126.1;;
69636;SDS011;56860;51.144;16.954;2024-01-10T03:24:38;53.3;;;126.1;;
69636;SDS011;56860;51.144;16.954;2024-01-10T03:25:38;53.3;;;126.1;;
69636;SDS011;56860;51.144;16.954;2024-01-10T03:26:38;53.5;;;114.4;;
69636;SDS011;56860;51.144;16.954;2024-01-10T03:27:38;53.5;;;114.4;;
69636;SDS011;56860;51.144;16.954;2024-01-10T03:28:38;53.5;;;114.4;;
69636;SDS011;56860;51.144;16.954;2024-01-10T03:29:38;51.8;;;114.0;;
69636;SDS011;56860;51.144;16.954;2024-01-10T03:30:38;51.8;;;114.0;;
69636;SDS011;56860;51.144;16.954;2024-01-10T03:31:38;51.8;;;114.0;;
69636;SDS011;56860;51.144;16.954;2024-01-10T03:32:38;54.0;;;118.3;;
69636;SDS011;56860;51.144;16.954;2024-01-10T03:33:38;54.0;;;118.3;;
69636;SDS011;56860;51.144;16.954;2024-01-10T03:34:38;54.0;;;118.3;;
69636;SDS011;56860;51.144;16.954;2024-01-10T03:35:38;53.8;;;117.2;;
69636;SDS011;56860;51.144;16.954;2024-01-10T03:36:38;53.8;;;117.2;;
69636;SDS011;56860;51.144;16.954;2024-01-10T03:37:38;53.8;;;117.2;;
69636;SDS011;56860;51.144;16.954;2024-01-10T03:38:38;53.7;;;120.8;;
69636;SDS011;56860;51.144;16.954;2024-01-10T03:39:38;53.7;;;120.8;;
69636;SDS011;56860;51.144;16.954;2024-01-10T03:40:38;53.7;;;120.8;;
69636;SDS011;56860;51.144;16.954;2024-01-10T03:41:38;54.0;;;114.6;;
69636;SDS011;56860;51.144;16.954;2024-01-10T03:42:38;54.0;;;114.6;;
69636;SDS011;56860;51.144;16.954;2024-01-10T03:43:38;54.0;;;114.6;;
69636;SDS011;56860;51.144;16.954;2024-01-10T03:44:38;54.0;;;118.3;;
69636;SDS011;56860;51.144;16.954;2024-01-10T03:45:38;54.0;;;118.3;;
69636;SDS011;56860;51.144;16.954;2024-01-10T03:46:38;54.0;;;118.3;;
69636;SDS011;56860;51.144;16.954;2024-01-10T03:47:38;55.1;;;117.5;;
69636;SDS011;56860;51.144;16.954;2024-01-10T03:48:38;55.1;;;117.5;;
69636;SDS011;56860;51.144;16.954;2024-01-10T03:49:38;55.1;;;117.5;;
69636;SDS011;56860;51.144;16.954;2024-01-10T03:50:38;55.9;;;118.1;;
69636;SDS011;56860;51.144;16.954;2024-01-10T03:51:38;55.9;;;118.1;;
69636;SDS011;56860;51.144;16.954;2024-01-10T03:52:38;55.9;;;118.1;;
69636;SDS011;56860;51.144;16.954;2024-01-10T03:53:38;55.4;;;119.9;;
69636;SDS011;56860;51.144;16.954;2024-01-10T03:54:38;55.4;;;119.9;;
69636;SDS011;56860;51.144;16.954;2024-01-10T03:55:38;55.4;;;119.9;;
69636;SDS011;56860;51.144;16.954;2024-01-10T03:56:38;52.9;;;123.0;;
69636;SDS011;56860;51.144;16.954;2024-01-10T03:57:38;52.9;;;123.0;;
69636;SDS011;56860;51.144;16.954;2024-01-10T03:58:38;52.9;;;123.0;;
69636;SDS011;56860;51.144;16.954;2024-01-10T03:59:38;54.8;;;117.7;;
69636;SDS011;56860;51.144;16.954;2024-01-10T04:00:38;54.8;;;117.7;;
69636;SDS011;56860;51.144;16.954;2024-01-10T04:01:38;54.8;;;117.7;;
69636;SDS011;56860;51.144;16.954;2024-01-10T04:02:38;54.5;;;126.4;;
69636;SDS011;56860;51.144;16.954;2024-01-10T04:03:38;54.5;;;126.4;;
69636;SDS011;56860;51.144;16.954;2024-01-10T04:04:38;54.5;;;126.4;;
69636;SDS011;56860;51.144;16.954;2024-01-10T04:05:38;52.7;;;118.1;;
69636;SDS011;56860;51.144;16.954;2024-01-10T04:06:38;52.7;;;118.1;;
69636;SDS011;56860;51.144;16.954;2024-01-10T04:07:39;52.7;;;118.1;;
69636;SDS011;56860;51.144;16.954;2024-01-10T04:08:38;54.2;;;116.2;;
69636;SDS011;56860;51.144;16.954;2024-01-10T04:09:38;54.2;;;116.2;;
69636;SDS011;56860;51.144;16.954;2024-01-10T04:10:38;54.2;;;116.2;;
69636;SDS011;56860;51.144;16.954;2024-01-10T04:11:38;53.5;;;127.1;;
69636;SDS011;56860;51.144;16.954;2024-01-10T04:12:38;53.5;;;127.1;;
69636;SDS011;56860;51.144;16.954;2024-01-10T04:13:38;53.5;;;127.1;;
69636;SDS011;56860;51.144;16.954;2024-01-10T04:14:38;53.8;;;109.8;;
69636;SDS011;56860;51.144;16.954;2024-01-10T04:15:38;53.8;;;109.8;;
69636;SDS011;56860;51.144;16.954;2024-01-10T04:16:38;53.8;;;109.8;;
69636;SDS011;56860;51.144;16.954;2024-01-10T04:17:38;54.5;;;116.4;;
69636;SDS011;56860;51.144;16.954;2024-01-10T04:18:38;54.5;;;116.4;;
69636;SDS011;56860;51.144;16.954;2024-01-10T04:19:38;54.5;;;116.4;;
69636;SDS011;56860;51.144;16.954;2024-01-10T04:20:38;52.8;;;112.0;;
69636;SDS011;56860;51.144;16.954;2024-01-10T04:21:38;52.8;;;112.0;;
69636;SDS011;56860;51.144;16.954;2024-01-10T04:22:38;52.8;;;112.0;;
69636;SDS011;56860;51.144;16.954;2024-01-10T04:23:38;54.4;;;122.3;;
69636;SDS011;56860;51.144;16.954;2024-01-10T04:24:38;54.4;;;122.3;;
69636;SDS011;56860;51.144;16.954;2024-01-10T04:25:38;54.4;;;122.3;;
69636;SDS011;56860;51.144;16.954;2024-01-10T04:26:38;50.8;;;107.7;;
69636;SDS011;56860;51.144;16.954;2024-01-10T04:27:38;50.8;;;107.7;;
69636;SDS011;56860;51.144;16.954;2024-01-10T04:28:38;50.8;;;107.7;;
69636;SDS011;56860;51.144;16.954;2024-01-10T04:29:38;52.4;;;106.8;;
69636;SDS011;56860;51.144;16.954;2024-01-10T04:30:38;52.4;;;106.8;;
69636;SDS011;56860;51.144;16.954;2024-01-10T04:31:38;52.4;;;106.8;;
69636;SDS011;56860;51.144;16.954;2024-01-10T04:32:38;52.8;;;126.1;;
69636;SDS011;56860;51.144;16.954;2024-01-10T04:33:38;52.8;;;126.1;;
69636;SDS011;56860;51.144;16.954;2024-01-10T04:34:38;52.8;;;126.1;;
69636;SDS011;56860;51.144;16.954;2024-01-10T04:35:38;52.5;;;122.4;;
69636;SDS011;56860;51.144;16.954;2024-01-10T04:36:38;52.5;;;122.4;;
69636;SDS011;56860;51.144;16.954;2024-01-10T04:37:38;52.5;;;122.4;;
69636;SDS011;56860;51.144;16.954;2024-01-10T04:38:38;51.4;;;110.5;;
69636;SDS011;56860;51.144;16.954;2024-01-10T04:39:38;51.4;;;110.5;;
69636;SDS011;56860;51.144;16.954;2024-01-10T04:40:38;51.4;;;110.5;;
69636;SDS011;56860;51.144;16.954;2024-01-10T04:41:38;50.6;;;128.1;;
69636;SDS011;56860;51.144;16.954;2024-01-10T04:42:38;50.6;;;128.1;;
69636;SDS011;56860;51.144;16.954;2024-01-10T04:43:38;50.6;;;128.1;;
69636;SDS011;56860;51.144;16.954;2024-01-10T04:44:38;49.2;;;106.1;;
69636;SDS011;56860;51.144;16.954;2024-01-10T04:45:38;49.2;;;106.1;;
69636;SDS011;56860;51.144;16.954;2024-01-10T04:46:38;49.2;;;106.1;;
69636;SDS011;56860;51.144;16.954;2024-01-10T04:47:38;50.2;;;117.3;;
69636;SDS011;56860;51.144;16.954;2024-01-10T04:48:38;50.2;;;117.3;;
69636;SDS011;56860;51.144;16.954;2024-01-10T04:49:38;50.2;;;117.3;;
69636;SDS011;56860;51.144;16.954;2024-01-10T04:50:38;51.6;;;120.1;;
69636;SDS011;56860;51.144;16.954;2024-01-10T04:51:38;51.6;;;120.1;;
69636;SDS011;56860;51.144;16.954;2024-01-10T04:52:38;51.6;;;120.1;;
69636;SDS011;56860;51.144;16.954;2024-01-10T04:53:38;51.7;;;115.5;;
69636;SDS011;56860;51.144;16.954;2024-01-10T04:54:38;51.7;;;115.5;;
69636;SDS011;56860;51.144;16.954;2024-01-10T04:55:38;51.7;;;115.5;;
69636;SDS011;56860;51.144;16.954;2024-01-10T04:56:38;52.6;;;113.9;;
69636;SDS011;56860;51.144;16.954;2024-01-10T04:57:38;52.6;;;113.9;;
69636;SDS011;56860;51.144;16.954;2024-01-10T04:58:38;52.6;;;113.9;;
69636;SDS011;56860;51.144;16.954;2024-01-10T04:59:38;51.5;;;116.6;;
69636;SDS011;56860;51.144;16.954;2024-01-10T05:00:38;51.5;;;116.6;;
69636;SDS011;56860;51.144;16.954;2024-01-10T05:01:38;51.5;;;116.6;;
69636;SDS011;56860;51.144;16.954;2024-01-10T05:02:38;50.9;;;117.4;;
69636;SDS011;56860;51.144;16.954;2024-01-10T05:03:38;50.9;;;117.4;;
69636;SDS011;56860;51.144;16.954;2024-01-10T05:04:38;50.9;;;117.4;;
69636;SDS011;56860;51.144;16.954;2024-01-10T05:05:38;50.8;;;116.0;;
69636;SDS011;56860;51.144;16.954;2024-01-10T05:06:38;50.8;;;116.0;;
69636;SDS011;56860;51.144;16.954;2024-01-10T05:07:38;50.8;;;116.0;;
69636;SDS011;56860;51.144;16.954;2024-01-10T05:08:38;53.6;;;114.4;;
69636;SDS011;56860;51.144;16.954;2024-01-10T05:09:38;53.6;;;114.4;;
69636;SDS011;56860;51.144;16.954;2024-01-10T05:10:38;53.6;;;114.4;;
69636;SDS011;56860;51.144;16.954;2024-01-10T05:11:38;56.9;;;128.2;;
69636;SDS011;56860;51.144;16.954;2024-01-10T05:12:38;56.9;;;128.2;;
69636;SDS011;56860;51.144;16.954;2024-01-10T05:13:38;56.9;;;128.2;;
69636;SDS011;56860;51.144;16.954;2024-01-10T05:14:38;55.6;;;127.1;;
69636;SDS011;56860;51.144;16.954;2024-01-10T05:15:38;53.8;;;119.1;;
69636;SDS011;56860;51.144;16.954;2024-01-10T05:16:38;53.8;;;119.1;;
69636;SDS011;56860;51.144;16.954;2024-01-10T05:17:38;61.0;;;142.4;;
69636;SDS011;56860;51.144;16.954;2024-01-10T05:18:38;58.6;;;133.6;;
69636;SDS011;56860;51.144;16.954;2024-01-10T05:19:38;58.6;;;133.6;;
69636;SDS011;56860;51.144;16.954;2024-01-10T05:20:38;55.8;;;134.3;;
69636;SDS011;56860;51.144;16.954;2024-01-10T05:21:38;54.0;;;126.3;;
69636;SDS011;56860;51.144;16.954;2024-01-10T05:22:39;54.0;;;126.3;;
69636;SDS011;56860;51.144;16.954;2024-01-10T05:23:38;56.0;;;125.4;;
69636;SDS011;56860;51.144;16.954;2024-01-10T05:24:38;53.7;;;121.2;;
69636;SDS011;56860;51.144;16.954;2024-01-10T05:25:38;53.7;;;121.2;;
69636;SDS011;56860;51.144;16.954;2024-01-10T05:26:38;53.2;;;112.1;;
69636;SDS011;56860;51.144;16.954;2024-01-10T05:27:38;53.0;;;111.6;;
69636;SDS011;56860;51.144;16.954;2024-01-10T05:28:38;53.0;;;111.6;;
69636;SDS011;56860;51.144;16.954;2024-01-10T05:29:38;56.6;;;130.2;;
69636;SDS011;56860;51.144;16.954;2024-01-10T05:30:38;55.0;;;125.4;;
69636;SDS011;56860;51.144;16.954;2024-01-10T05:31:38;55.0;;;125.4;;
69636;SDS011;56860;51.144;16.954;2024-01-10T05:32:38;53.6;;;121.3;;
69636;SDS011;56860;51.144;16.954;2024-01-10T05:33:38;53.1;;;122.5;;
69636;SDS011;56860;51.144;16.954;2024-01-10T05:34:38;53.1;;;122.5;;
69636;SDS011;56860;51.144;16.954;2024-01-10T05:35:38;37.8;;;77.3;;
69636;SDS011;56860;51.144;16.954;2024-01-10T05:36:38;56.1;;;128.4;;
69636;SDS011;56860;51.144;16.954;2024-01-10T05:37:38;56.1;;;128.4;;
69636;SDS011;56860;51.144;16.954;2024-01-10T05:38:38;41.7;;;73.0;;
69636;SDS011;56860;51.144;16.954;2024-01-10T05:39:38;54.0;;;121.5;;
69636;SDS011;56860;51.144;16.954;2024-01-10T05:40:38;54.0;;;121.5;;
69636;SDS011;56860;51.144;16.954;2024-01-10T05:41:38;54.0;;;121.5;;
69636;SDS011;56860;51.144;16.954;2024-01-10T05:42:38;58.5;;;131.1;;
69636;SDS011;56860;51.144;16.954;2024-01-10T05:43:38;58.5;;;131.1;;
69636;SDS011;56860;51.144;16.954;2024-01-10T05:44:38;58.5;;;131.1;;
69636;SDS011;56860;51.144;16.954;2024-01-10T05:45:38;57.1;;;130.8;;
69636;SDS011;56860;51.144;16.954;2024-01-10T05:46:38;57.1;;;130.8;;
69636;SDS011;56860;51.144;16.954;2024-01-10T05:47:40;57.1;;;130.8;;
69636;SDS011;56860;51.144;16.954;2024-01-10T05:48:38;58.4;;;132.0;;
69636;SDS011;56860;51.144;16.954;2024-01-10T05:49:38;58.4;;;132.0;;
69636;SDS011;56860;51.144;16.954;2024-01-10T05:50:38;58.4;;;132.0;;
69636;SDS011;56860;51.144;16.954;2024-01-10T05:51:38;58.0;;;139.8;;
69636;SDS011;56860;51.144;16.954;2024-01-10T05:52:38;58.0;;;139.8;;
69636;SDS011;56860;51.144;16.954;2024-01-10T05:53:38;58.0;;;139.8;;
69636;SDS011;56860;51.144;16.954;2024-01-10T05:54:38;57.2;;;134.6;;
69636;SDS011;56860;51.144;16.954;2024-01-10T05:55:38;57.2;;;134.6;;
69636;SDS011;56860;51.144;16.954;2024-01-10T05:56:38;57.2;;;134.6;;